Time;durP1;ratioP1;P1;durP2;ratioP2;P2;SDS_P1;SDS_P2;PMS_P1;PMS_P2;Temp;Humidity;BMP_temperature;BMP_pressure;BME280_temperature;BME280_humidity;BME280_pressure;Samples;Min_cycle;Max_cycle;Signal;HPM_P1;HPM_P2
2023/12/13 00:00:24;;;;;;;8.43;4.32;;;;;;;;;;5029507;28;20403;-64
2023/12/13 00:02:50;;;;;;;7.20;3.90;;;;;;;;;;5029938;28;20480;-64
2023/12/13 00:05:15;;;;;;;6.07;3.83;;;;;;;;;;5028523;28;20416;-64
2023/12/13 00:07:40;;;;;;;6.43;3.70;;;;;;;;;;5028999;28;20491;-64
2023/12/13 00:10:06;;;;;;;7.57;3.90;;;;;;;;;;5029215;28;20434;-64
2023/12/13 00:12:31;;;;;;;8.30;3.95;;;;;;;;;;5029156;28;20391;-63
2023/12/13 00:14:56;;;;;;;6.70;3.53;;;;;;;;;;5029691;28;20429;-64
2023/12/13 00:17:22;;;;;;;6.00;3.30;;;;;;;;;;5028221;28;20391;-64
2023/12/13 00:19:47;;;;;;;8.20;3.70;;;;;;;;;;5029123;28;20410;-64
2023/12/13 00:22:12;;;;;;;5.20;3.03;;;;;;;;;;5029195;28;20403;-64
2023/12/13 00:24:38;;;;;;;5.82;3.00;;;;;;;;;;5029148;28;20553;-63
2023/12/13 00:27:03;;;;;;;7.10;3.50;;;;;;;;;;5029084;28;20484;-64
2023/12/13 00:29:29;;;;;;;6.90;3.40;;;;;;;;;;5029123;28;20521;-63
2023/12/13 00:31:54;;;;;;;7.22;3.13;;;;;;;;;;5031319;28;20427;-64
2023/12/13 00:34:19;;;;;;;5.87;3.03;;;;;;;;;;5032733;28;20407;-64
2023/12/13 00:36:45;;;;;;;7.80;4.00;;;;;;;;;;5033458;28;20434;-63
2023/12/13 00:39:10;;;;;;;6.80;3.40;;;;;;;;;;5031515;28;20439;-64
2023/12/13 00:41:35;;;;;;;7.88;3.60;;;;;;;;;;5033704;28;20748;-63
2023/12/13 00:44:03;;;;;;;7.03;3.50;;;;;;;;;;5033244;28;20399;-64
2023/12/13 00:46:28;;;;;;;6.75;3.53;;;;;;;;;;5032633;28;20866;-64
2023/12/13 00:48:54;;;;;;;7.20;3.38;;;;;;;;;;5027624;28;20414;-64
2023/12/13 00:51:19;;;;;;;6.67;3.57;;;;;;;;;;5033235;28;20449;-64
2023/12/13 00:53:45;;;;;;;5.77;3.20;;;;;;;;;;5032526;28;20399;-63
2023/12/13 00:56:10;;;;;;;9.68;3.60;;;;;;;;;;5032649;28;20415;-64
2023/12/13 00:58:35;;;;;;;7.07;3.10;;;;;;;;;;5032571;28;20410;-63
2023/12/13 01:01:00;;;;;;;6.27;2.80;;;;;;;;;;5032095;28;20434;-66
2023/12/13 01:03:26;;;;;;;5.87;2.50;;;;;;;;;;5033057;28;20874;-64
2023/12/13 01:05:51;;;;;;;7.57;2.83;;;;;;;;;;5033415;28;20411;-63
2023/12/13 01:08:17;;;;;;;4.80;2.40;;;;;;;;;;5031256;28;20423;-63
2023/12/13 01:10:42;;;;;;;5.53;2.90;;;;;;;;;;5033235;28;20395;-64
2023/12/13 01:13:07;;;;;;;4.40;2.60;;;;;;;;;;5032466;28;20452;-64
2023/12/13 01:15:33;;;;;;;5.47;2.60;;;;;;;;;;5032032;28;20418;-63
2023/12/13 01:17:58;;;;;;;6.43;2.77;;;;;;;;;;5032387;28;20774;-64
2023/12/13 01:20:24;;;;;;;6.80;2.90;;;;;;;;;;5032322;28;20411;-64
2023/12/13 01:22:49;;;;;;;7.67;2.60;;;;;;;;;;5032258;28;20414;-63
2023/12/13 01:25:14;;;;;;;6.47;2.87;;;;;;;;;;5032290;28;20403;-64
2023/12/13 01:27:39;;;;;;;6.93;2.90;;;;;;;;;;5031220;28;20892;-64
2023/12/13 01:30:08;;;;;;;6.70;3.20;;;;;;;;;;5032086;28;20457;-64
2023/12/13 01:32:33;;;;;;;6.38;2.60;;;;;;;;;;5032883;28;20391;-63
2023/12/13 01:34:59;;;;;;;6.07;2.70;;;;;;;;;;5031744;28;20434;-63
2023/12/13 01:37:24;;;;;;;5.63;2.40;;;;;;;;;;5031220;28;20429;-64
2023/12/13 01:39:49;;;;;;;5.60;2.47;;;;;;;;;;5032530;28;20453;-63
2023/12/13 01:42:15;;;;;;;6.53;2.83;;;;;;;;;;5030899;28;20403;-64
2023/12/13 01:44:40;;;;;;;5.57;2.50;;;;;;;;;;5032087;28;20398;-63
2023/12/13 01:47:05;;;;;;;6.37;2.70;;;;;;;;;;5032066;28;20395;-63
2023/12/13 01:49:30;;;;;;;6.13;2.90;;;;;;;;;;5025943;28;20396;-63
2023/12/13 01:51:56;;;;;;;6.43;2.70;;;;;;;;;;5032439;28;20391;-63
2023/12/13 01:54:21;;;;;;;6.27;2.57;;;;;;;;;;5030637;28;20422;-63
2023/12/13 01:56:46;;;;;;;6.30;2.17;;;;;;;;;;5031213;28;20399;-63
2023/12/13 01:59:12;;;;;;;7.77;2.53;;;;;;;;;;5030802;28;20411;-64
2023/12/13 02:01:38;;;;;;;6.82;2.33;;;;;;;;;;5032255;28;20494;-63
2023/12/13 02:04:04;;;;;;;6.25;2.35;;;;;;;;;;5029519;28;20924;-64
2023/12/13 02:06:29;;;;;;;5.00;2.10;;;;;;;;;;5032211;28;20882;-63
2023/12/13 02:08:54;;;;;;;7.20;2.43;;;;;;;;;;5029902;28;20983;-63
2023/12/13 02:11:20;;;;;;;6.57;2.27;;;;;;;;;;5030735;28;20870;-64
2023/12/13 02:13:45;;;;;;;5.73;2.37;;;;;;;;;;5031891;28;20391;-63
2023/12/13 02:16:10;;;;;;;7.87;2.70;;;;;;;;;;5030171;28;20969;-63
2023/12/13 02:18:36;;;;;;;7.20;2.80;;;;;;;;;;5030404;28;20411;-63
2023/12/13 02:21:02;;;;;;;5.43;1.90;;;;;;;;;;5031445;28;20999;-64
2023/12/13 02:23:27;;;;;;;5.38;2.17;;;;;;;;;;5031780;28;20408;-63
2023/12/13 02:25:53;;;;;;;5.63;2.20;;;;;;;;;;5030597;28;20894;-63
2023/12/13 02:28:18;;;;;;;6.10;2.20;;;;;;;;;;5030395;28;20763;-63
2023/12/13 02:30:44;;;;;;;5.27;2.30;;;;;;;;;;5021757;28;20432;-64
2023/12/13 02:33:10;;;;;;;6.53;2.15;;;;;;;;;;5018673;28;20763;-64
2023/12/13 02:35:35;;;;;;;6.33;2.07;;;;;;;;;;5002582;28;20401;-64
2023/12/13 02:38:00;;;;;;;6.43;2.07;;;;;;;;;;5000975;28;20460;-65
2023/12/13 02:40:26;;;;;;;6.10;2.13;;;;;;;;;;5001152;28;20871;-64
2023/12/13 02:42:51;;;;;;;5.03;2.10;;;;;;;;;;5002003;28;20397;-64
2023/12/13 02:45:17;;;;;;;5.13;2.03;;;;;;;;;;4997688;28;20451;-64
2023/12/13 02:47:43;;;;;;;5.20;2.10;;;;;;;;;;4993057;28;20509;-64
2023/12/13 02:50:09;;;;;;;4.80;2.10;;;;;;;;;;4988814;28;20970;-64
2023/12/13 02:52:35;;;;;;;7.25;2.50;;;;;;;;;;4996844;28;20760;-64
2023/12/13 02:55:00;;;;;;;4.90;1.77;;;;;;;;;;5000876;28;20417;-64
2023/12/13 02:57:25;;;;;;;5.63;2.30;;;;;;;;;;5000312;28;20442;-64
2023/12/13 02:59:51;;;;;;;5.63;2.03;;;;;;;;;;5000879;28;20423;-64
2023/12/13 03:02:16;;;;;;;6.63;2.00;;;;;;;;;;5001470;28;20915;-64
2023/12/13 03:04:41;;;;;;;6.00;2.20;;;;;;;;;;5001579;28;21369;-64
2023/12/13 03:07:06;;;;;;;5.43;1.90;;;;;;;;;;4998837;28;20963;-65
2023/12/13 03:09:32;;;;;;;5.40;1.90;;;;;;;;;;4993702;28;20443;-64
2023/12/13 03:11:57;;;;;;;6.67;1.90;;;;;;;;;;4993569;28;20463;-64
2023/12/13 03:14:22;;;;;;;6.10;1.93;;;;;;;;;;4992881;28;20413;-64
2023/12/13 03:16:48;;;;;;;4.30;1.70;;;;;;;;;;5001281;28;20396;-64
2023/12/13 03:19:13;;;;;;;4.23;1.97;;;;;;;;;;4999495;28;21149;-64
2023/12/13 03:21:38;;;;;;;4.60;1.77;;;;;;;;;;5000962;28;20493;-64
2023/12/13 03:24:04;;;;;;;5.23;1.80;;;;;;;;;;5000646;28;20409;-64
2023/12/13 03:26:29;;;;;;;4.90;2.00;;;;;;;;;;5001113;28;20876;-64
2023/12/13 03:28:54;;;;;;;4.67;1.70;;;;;;;;;;4999480;28;20409;-64
2023/12/13 03:31:20;;;;;;;7.23;1.97;;;;;;;;;;4995119;28;21102;-64
2023/12/13 03:33:45;;;;;;;5.70;2.23;;;;;;;;;;4992922;28;20440;-64
2023/12/13 03:36:15;;;;;;;8.93;2.30;;;;;;;;;;4992511;28;20412;-64
2023/12/13 03:38:40;;;;;;;8.67;2.33;;;;;;;;;;5015953;28;20415;-64
2023/12/13 03:41:05;;;;;;;5.53;2.80;;;;;;;;;;5000062;28;20682;-65
2023/12/13 03:43:31;;;;;;;5.97;2.70;;;;;;;;;;5017915;28;20402;-64
2023/12/13 03:45:56;;;;;;;6.83;2.73;;;;;;;;;;5000649;28;20405;-64
2023/12/13 03:48:21;;;;;;;6.73;2.60;;;;;;;;;;4994273;28;20494;-64
2023/12/13 03:50:46;;;;;;;8.13;3.10;;;;;;;;;;5000337;28;20800;-64
2023/12/13 03:53:12;;;;;;;6.28;2.70;;;;;;;;;;4996725;28;20432;-64
2023/12/13 03:55:37;;;;;;;6.60;2.60;;;;;;;;;;5011161;28;20596;-64
2023/12/13 03:58:02;;;;;;;6.37;2.70;;;;;;;;;;5007768;28;20443;-64
2023/12/13 04:00:28;;;;;;;6.83;2.80;;;;;;;;;;4997040;28;20387;-64
2023/12/13 04:02:53;;;;;;;7.83;2.97;;;;;;;;;;4999591;28;20412;-64
2023/12/13 04:05:18;;;;;;;6.27;2.60;;;;;;;;;;5000149;28;20804;-64
2023/12/13 04:07:44;;;;;;;6.45;3.10;;;;;;;;;;4999499;28;20960;-64
2023/12/13 04:10:09;;;;;;;7.57;3.23;;;;;;;;;;4999657;28;20812;-64
2023/12/13 04:12:34;;;;;;;5.57;2.80;;;;;;;;;;5000003;28;20404;-64
2023/12/13 04:15:00;;;;;;;11.10;4.80;;;;;;;;;;4999057;28;20927;-64
2023/12/13 04:17:27;;;;;;;7.03;3.60;;;;;;;;;;4990370;28;27437;-64
2023/12/13 04:19:54;;;;;;;8.90;4.55;;;;;;;;;;4992688;28;20499;-64
2023/12/13 04:22:19;;;;;;;6.53;3.88;;;;;;;;;;4994184;28;20393;-64
2023/12/13 04:24:45;;;;;;;8.07;4.00;;;;;;;;;;4999822;28;20419;-64
2023/12/13 04:27:10;;;;;;;7.47;3.90;;;;;;;;;;4999790;28;20526;-64
2023/12/13 04:29:35;;;;;;;8.97;3.90;;;;;;;;;;4999408;28;20409;-64
2023/12/13 04:32:01;;;;;;;8.90;4.50;;;;;;;;;;4999132;28;20896;-64
2023/12/13 04:34:26;;;;;;;9.83;4.50;;;;;;;;;;5000531;28;20399;-63
2023/12/13 04:36:51;;;;;;;6.83;3.70;;;;;;;;;;5000667;28;20993;-64
2023/12/13 04:39:17;;;;;;;8.13;4.60;;;;;;;;;;5018263;28;20503;-64
2023/12/13 04:41:42;;;;;;;7.70;4.37;;;;;;;;;;4992259;28;20416;-64
2023/12/13 04:44:09;;;;;;;7.10;3.60;;;;;;;;;;4991978;28;20488;-64
2023/12/13 04:46:34;;;;;;;9.20;4.65;;;;;;;;;;4998143;28;20405;-64
2023/12/13 04:49:00;;;;;;;10.27;6.07;;;;;;;;;;4995111;28;20455;-64
2023/12/13 04:51:26;;;;;;;10.50;5.10;;;;;;;;;;4999490;28;20409;-64
2023/12/13 04:53:52;;;;;;;8.75;5.90;;;;;;;;;;5018495;28;20749;-64
2023/12/13 04:56:17;;;;;;;10.10;5.73;;;;;;;;;;5015572;28;20413;-64
2023/12/13 04:58:42;;;;;;;8.27;4.83;;;;;;;;;;4998471;28;20904;-64
2023/12/13 05:01:08;;;;;;;9.67;5.37;;;;;;;;;;4995404;28;20455;-64
2023/12/13 05:03:33;;;;;;;7.50;4.30;;;;;;;;;;4991599;28;20484;-64
2023/12/13 05:05:58;;;;;;;9.43;4.70;;;;;;;;;;4991563;28;20409;-64
2023/12/13 05:08:23;;;;;;;9.85;6.15;;;;;;;;;;4995134;28;20420;-64
2023/12/13 05:10:49;;;;;;;9.07;5.60;;;;;;;;;;5019018;28;20954;-64
2023/12/13 05:13:14;;;;;;;6.93;4.40;;;;;;;;;;4998970;28;20913;-64
2023/12/13 05:15:39;;;;;;;7.27;4.67;;;;;;;;;;4999672;28;20415;-64
2023/12/13 05:18:05;;;;;;;8.80;4.30;;;;;;;;;;4999332;28;20416;-64
2023/12/13 05:20:30;;;;;;;11.40;6.30;;;;;;;;;;5024990;28;20400;-64
2023/12/13 05:22:56;;;;;;;13.53;7.30;;;;;;;;;;5002822;28;21787;-64
2023/12/13 05:25:21;;;;;;;10.23;5.87;;;;;;;;;;4994212;28;21031;-64
2023/12/13 05:27:46;;;;;;;10.40;6.60;;;;;;;;;;4994288;28;20393;-64
2023/12/13 05:30:12;;;;;;;8.88;5.95;;;;;;;;;;4997250;28;20413;-64
2023/12/13 05:32:37;;;;;;;9.30;5.43;;;;;;;;;;5002834;28;20409;-64
2023/12/13 05:35:02;;;;;;;11.33;6.33;;;;;;;;;;5002483;28;20424;-64
2023/12/13 05:37:28;;;;;;;12.20;7.03;;;;;;;;;;5002692;28;20945;-64
2023/12/13 05:39:53;;;;;;;11.33;6.50;;;;;;;;;;5024628;28;21398;-64
2023/12/13 05:42:18;;;;;;;14.48;8.20;;;;;;;;;;5002097;28;20506;-65
2023/12/13 05:44:44;;;;;;;13.00;7.23;;;;;;;;;;5002683;28;20393;-65
2023/12/13 05:47:09;;;;;;;12.13;7.27;;;;;;;;;;4995664;28;20417;-65
2023/12/13 05:49:34;;;;;;;10.43;6.73;;;;;;;;;;5007861;28;20401;-64
2023/12/13 05:52:01;;;;;;;12.55;8.40;;;;;;;;;;5023077;28;20426;-65
2023/12/13 05:54:26;;;;;;;12.47;7.70;;;;;;;;;;5032329;28;20898;-65
2023/12/13 05:56:51;;;;;;;11.67;6.97;;;;;;;;;;5031187;28;20463;-64
2023/12/13 05:59:17;;;;;;;16.00;9.07;;;;;;;;;;5030895;28;20403;-65
2023/12/13 06:01:42;;;;;;;10.67;7.47;;;;;;;;;;5031842;28;20398;-65
2023/12/13 06:04:07;;;;;;;13.88;7.90;;;;;;;;;;5031138;28;20406;-65
2023/12/13 06:06:32;;;;;;;11.27;7.60;;;;;;;;;;5032067;28;20447;-65
2023/12/13 06:08:58;;;;;;;11.37;7.90;;;;;;;;;;5031348;28;20431;-65
2023/12/13 06:11:24;;;;;;;13.77;9.73;;;;;;;;;;5031213;28;20410;-65
2023/12/13 06:13:49;;;;;;;11.50;8.00;;;;;;;;;;5011509;28;20947;-65
2023/12/13 06:16:14;;;;;;;12.47;8.37;;;;;;;;;;4996118;28;20417;-65
2023/12/13 06:18:39;;;;;;;11.83;7.20;;;;;;;;;;5001291;28;20401;-65
2023/12/13 06:21:06;;;;;;;11.07;6.77;;;;;;;;;;5002433;28;20853;-65
2023/12/13 06:23:31;;;;;;;15.02;8.15;;;;;;;;;;5001863;28;20412;-65
2023/12/13 06:25:57;;;;;;;13.27;8.47;;;;;;;;;;5002635;28;20412;-65
2023/12/13 06:28:22;;;;;;;9.60;7.57;;;;;;;;;;5001138;28;20425;-65
2023/12/13 06:30:48;;;;;;;11.83;7.80;;;;;;;;;;5000462;28;20918;-65
2023/12/13 06:33:14;;;;;;;13.83;7.33;;;;;;;;;;4994289;28;20532;-65
2023/12/13 06:35:40;;;;;;;10.90;6.23;;;;;;;;;;4994541;28;20401;-65
2023/12/13 06:38:05;;;;;;;13.57;7.70;;;;;;;;;;4992818;28;20416;-65
2023/12/13 06:40:30;;;;;;;10.57;6.10;;;;;;;;;;5001352;28;20404;-65
2023/12/13 06:42:56;;;;;;;12.20;7.90;;;;;;;;;;5002024;28;20749;-65
2023/12/13 06:45:21;;;;;;;12.30;6.90;;;;;;;;;;5000722;28;20405;-65
2023/12/13 06:47:48;;;;;;;14.03;6.57;;;;;;;;;;5001017;28;20746;-65
2023/12/13 06:50:13;;;;;;;18.02;9.10;;;;;;;;;;4996730;28;20892;-65
2023/12/13 06:52:39;;;;;;;15.97;7.87;;;;;;;;;;5001025;28;20439;-64
2023/12/13 06:55:04;;;;;;;14.88;8.05;;;;;;;;;;4996170;28;20411;-65
2023/12/13 06:57:29;;;;;;;13.57;8.23;;;;;;;;;;4993160;28;20463;-65
2023/12/13 06:59:55;;;;;;;11.60;5.77;;;;;;;;;;4991905;28;20447;-65
2023/12/13 07:02:20;;;;;;;13.67;7.30;;;;;;;;;;4998444;28;20877;-65
2023/12/13 07:04:46;;;;;;;12.33;7.37;;;;;;;;;;5001875;28;20438;-65
2023/12/13 07:07:14;;;;;;;15.60;7.93;;;;;;;;;;4999886;28;20411;-65
2023/12/13 07:09:40;;;;;;;12.30;7.35;;;;;;;;;;5027094;28;20399;-63
2023/12/13 07:12:05;;;;;;;10.27;7.30;;;;;;;;;;5027577;28;20403;-65
2023/12/13 07:14:31;;;;;;;14.97;8.60;;;;;;;;;;5034913;28;20405;-63
2023/12/13 07:16:56;;;;;;;14.20;7.80;;;;;;;;;;5032896;28;20407;-62
2023/12/13 07:19:22;;;;;;;13.20;8.27;;;;;;;;;;5028584;28;20480;-62
2023/12/13 07:21:47;;;;;;;14.60;7.80;;;;;;;;;;5029107;28;20538;-62
2023/12/13 07:24:12;;;;;;;14.02;8.50;;;;;;;;;;5029618;28;20404;-62
2023/12/13 07:26:38;;;;;;;13.23;7.77;;;;;;;;;;5029356;28;20759;-62
2023/12/13 07:29:03;;;;;;;11.87;7.40;;;;;;;;;;5029098;28;20537;-62
2023/12/13 07:31:28;;;;;;;14.00;8.10;;;;;;;;;;5029794;28;20403;-62
2023/12/13 07:33:54;;;;;;;13.55;7.47;;;;;;;;;;5029502;28;20407;-62
2023/12/13 07:36:19;;;;;;;21.47;10.73;;;;;;;;;;5029364;28;22736;-62
2023/12/13 07:38:45;;;;;;;23.07;10.63;;;;;;;;;;5029040;28;20775;-62
2023/12/13 07:41:11;;;;;;;12.65;7.18;;;;;;;;;;5028267;28;20418;-62
2023/12/13 07:43:36;;;;;;;14.93;7.43;;;;;;;;;;5029908;28;20411;-62
2023/12/13 07:46:01;;;;;;;14.65;8.30;;;;;;;;;;5029339;28;20957;-62
2023/12/13 07:48:28;;;;;;;14.52;8.50;;;;;;;;;;5023532;28;20479;-61
2023/12/13 07:50:54;;;;;;;21.23;10.20;;;;;;;;;;5061288;28;20490;-61
2023/12/13 07:53:19;;;;;;;20.25;10.20;;;;;;;;;;5029514;28;20454;-61
2023/12/13 07:55:45;;;;;;;17.07;9.27;;;;;;;;;;5028888;28;20415;-62
2023/12/13 07:58:10;;;;;;;14.10;8.02;;;;;;;;;;5027649;28;20407;-62
2023/12/13 08:00:36;;;;;;;13.07;8.33;;;;;;;;;;5029566;28;20500;-62
2023/12/13 08:03:01;;;;;;;15.97;8.57;;;;;;;;;;5027792;28;20399;-63
2023/12/13 08:05:26;;;;;;;16.27;9.27;;;;;;;;;;5030102;28;20860;-62
2023/12/13 08:07:51;;;;;;;17.23;9.10;;;;;;;;;;5028028;28;20945;-62
2023/12/13 08:10:18;;;;;;;18.80;10.20;;;;;;;;;;5028593;28;20739;-62
2023/12/13 08:12:43;;;;;;;13.98;8.68;;;;;;;;;;5027153;28;20395;-62
2023/12/13 08:15:09;;;;;;;14.77;7.77;;;;;;;;;;5029035;28;20434;-62
2023/12/13 08:17:34;;;;;;;13.77;7.68;;;;;;;;;;5028056;28;20426;-62
2023/12/13 08:20:00;;;;;;;15.33;8.20;;;;;;;;;;5026450;28;20892;-61
2023/12/13 08:22:26;;;;;;;18.27;8.90;;;;;;;;;;5029725;28;20383;-62
2023/12/13 08:24:51;;;;;;;18.60;8.70;;;;;;;;;;5029007;28;20417;-61
2023/12/13 08:27:16;;;;;;;15.80;8.30;;;;;;;;;;5029458;28;20406;-62
2023/12/13 08:29:41;;;;;;;13.67;7.30;;;;;;;;;;5028299;28;20395;-61
2023/12/13 08:32:07;;;;;;;14.02;6.88;;;;;;;;;;5029045;28;20407;-62
2023/12/13 08:34:32;;;;;;;15.33;6.93;;;;;;;;;;5027980;28;20395;-61
2023/12/13 08:36:58;;;;;;;16.37;6.63;;;;;;;;;;5028749;28;20399;-62
2023/12/13 08:39:23;;;;;;;13.77;6.90;;;;;;;;;;5028314;28;20446;-62
2023/12/13 08:41:49;;;;;;;13.23;6.47;;;;;;;;;;5029709;28;20411;-61
2023/12/13 08:44:14;;;;;;;12.97;6.33;;;;;;;;;;5028316;28;20407;-62
2023/12/13 08:46:40;;;;;;;12.73;6.40;;;;;;;;;;5029234;28;20397;-61
2023/12/13 08:49:05;;;;;;;14.03;6.20;;;;;;;;;;5023853;28;20403;-63
2023/12/13 08:51:31;;;;;;;13.93;6.80;;;;;;;;;;5028745;28;20486;-62
2023/12/13 08:53:56;;;;;;;15.17;6.50;;;;;;;;;;5033685;28;20983;-62
2023/12/13 08:56:21;;;;;;;15.30;6.70;;;;;;;;;;5032815;28;20418;-62
2023/12/13 08:58:47;;;;;;;13.33;6.10;;;;;;;;;;5031935;28;20407;-62
2023/12/13 09:01:12;;;;;;;15.02;6.75;;;;;;;;;;5032674;28;20411;-62
2023/12/13 09:03:38;;;;;;;13.37;5.73;;;;;;;;;;5031954;28;20445;-62
2023/12/13 09:06:03;;;;;;;19.20;7.30;;;;;;;;;;5032301;28;20402;-62
2023/12/13 09:08:28;;;;;;;13.88;6.20;;;;;;;;;;5032471;28;20433;-62
2023/12/13 09:10:55;;;;;;;13.33;6.17;;;;;;;;;;5033257;28;20398;-62
2023/12/13 09:13:20;;;;;;;14.45;6.03;;;;;;;;;;5031912;28;20423;-61
2023/12/13 09:15:45;;;;;;;15.67;6.00;;;;;;;;;;5032802;28;20517;-61
2023/12/13 09:18:11;;;;;;;14.80;6.20;;;;;;;;;;5031992;28;20889;-61
2023/12/13 09:20:36;;;;;;;12.13;6.00;;;;;;;;;;5031931;28;20402;-61
2023/12/13 09:23:01;;;;;;;15.10;6.28;;;;;;;;;;5032487;28;20437;-62
2023/12/13 09:25:27;;;;;;;12.40;5.60;;;;;;;;;;5033025;28;20403;-61
2023/12/13 09:27:52;;;;;;;14.83;6.17;;;;;;;;;;5031617;28;20450;-61
2023/12/13 09:30:17;;;;;;;14.23;6.20;;;;;;;;;;5032245;28;20533;-61
2023/12/13 09:32:43;;;;;;;14.80;6.17;;;;;;;;;;5033032;28;20922;-61
2023/12/13 09:35:08;;;;;;;13.32;6.20;;;;;;;;;;5031538;28;20906;-61
2023/12/13 09:37:34;;;;;;;16.53;6.47;;;;;;;;;;5031861;28;20479;-61
2023/12/13 09:39:59;;;;;;;14.93;6.68;;;;;;;;;;5032431;28;20467;-61
2023/12/13 09:42:25;;;;;;;16.23;6.47;;;;;;;;;;5031970;28;20503;-61
2023/12/13 09:44:52;;;;;;;13.82;6.53;;;;;;;;;;5032302;28;20508;-61
2023/12/13 09:47:17;;;;;;;15.68;6.97;;;;;;;;;;5046637;28;20390;-61
2023/12/13 09:49:43;;;;;;;17.40;7.07;;;;;;;;;;5042295;28;20537;-61
2023/12/13 09:52:08;;;;;;;16.87;7.07;;;;;;;;;;5047301;28;20434;-61
2023/12/13 09:54:37;;;;;;;13.10;5.93;;;;;;;;;;5031518;28;20395;-61
2023/12/13 09:57:03;;;;;;;13.00;6.30;;;;;;;;;;5031807;28;20411;-62
2023/12/13 09:59:28;;;;;;;12.80;5.50;;;;;;;;;;5031602;28;20789;-62
2023/12/13 10:01:55;;;;;;;14.53;6.00;;;;;;;;;;5030163;28;20410;-62
2023/12/13 10:04:21;;;;;;;13.93;6.32;;;;;;;;;;5031067;28;20399;-62
2023/12/13 10:06:46;;;;;;;12.50;6.13;;;;;;;;;;5034604;28;20405;-62
2023/12/13 10:09:11;;;;;;;13.68;6.10;;;;;;;;;;5031021;28;20404;-62
2023/12/13 10:11:37;;;;;;;13.77;5.40;;;;;;;;;;5027540;28;20804;-62
2023/12/13 10:14:02;;;;;;;12.00;5.13;;;;;;;;;;5031704;28;20397;-62
2023/12/13 10:16:28;;;;;;;13.07;5.70;;;;;;;;;;5030790;28;20411;-61
2023/12/13 10:18:54;;;;;;;10.63;5.10;;;;;;;;;;5030711;28;20844;-61
2023/12/13 10:21:19;;;;;;;12.50;5.45;;;;;;;;;;5030715;28;20411;-61
2023/12/13 10:23:45;;;;;;;12.20;5.53;;;;;;;;;;5029701;28;20745;-61
2023/12/13 10:26:10;;;;;;;12.43;5.30;;;;;;;;;;5031012;28;20406;-61
2023/12/13 10:28:35;;;;;;;13.47;6.03;;;;;;;;;;5029995;28;20399;-61
2023/12/13 10:31:01;;;;;;;12.23;5.27;;;;;;;;;;5030410;28;20474;-62
2023/12/13 10:33:26;;;;;;;10.20;4.30;;;;;;;;;;5029930;28;20411;-61
2023/12/13 10:35:53;;;;;;;10.37;4.07;;;;;;;;;;5030926;28;20832;-61
2023/12/13 10:38:19;;;;;;;9.15;4.93;;;;;;;;;;5029510;28;20805;-61
2023/12/13 10:40:44;;;;;;;10.53;5.00;;;;;;;;;;5030351;28;20399;-61
2023/12/13 10:43:10;;;;;;;10.75;5.63;;;;;;;;;;5030863;28;20410;-62
2023/12/13 10:45:40;;;;;;;14.00;5.60;;;;;;;;;;5030614;28;20422;-61
2023/12/13 10:48:07;;;;;;;11.20;5.10;;;;;;;;;;5023976;28;20415;-62
2023/12/13 10:50:33;;;;;;;13.27;5.47;;;;;;;;;;5030213;28;20395;-61
2023/12/13 10:52:59;;;;;;;10.73;5.03;;;;;;;;;;5030080;28;20487;-61
2023/12/13 10:55:24;;;;;;;11.87;5.10;;;;;;;;;;5029368;28;20410;-61
2023/12/13 10:57:49;;;;;;;10.77;4.80;;;;;;;;;;5029647;28;20449;-62
2023/12/13 11:00:15;;;;;;;13.13;5.80;;;;;;;;;;5030281;28;20422;-62
2023/12/13 11:02:44;;;;;;;10.53;4.80;;;;;;;;;;5029893;28;20494;-61
2023/12/13 11:05:09;;;;;;;9.30;4.67;;;;;;;;;;5029540;28;20448;-62
2023/12/13 11:07:43;;;;;;;11.27;5.40;;;;;;;;;;5030045;28;20415;-62
2023/12/13 11:10:09;;;;;;;9.23;4.10;;;;;;;;;;5030485;28;20436;-62
2023/12/13 11:12:44;;;;;;;8.98;3.90;;;;;;;;;;5030210;28;20426;-61
2023/12/13 11:15:09;;;;;;;7.47;3.80;;;;;;;;;;5029433;28;20445;-62
2023/12/13 11:17:36;;;;;;;8.77;4.00;;;;;;;;;;5028465;28;20401;-62
2023/12/13 11:20:09;;;;;;;8.07;3.50;;;;;;;;;;5029513;28;20479;-62
2023/12/13 11:22:34;;;;;;;8.77;3.40;;;;;;;;;;5030827;28;20403;-61
2023/12/13 11:25:07;;;;;;;7.33;3.40;;;;;;;;;;5030623;28;20406;-61
2023/12/13 11:27:32;;;;;;;7.87;3.63;;;;;;;;;;5028095;28;20398;-61
2023/12/13 11:29:58;;;;;;;7.53;3.57;;;;;;;;;;5029735;28;20399;-61
2023/12/13 11:32:33;;;;;;;8.90;3.90;;;;;;;;;;5028997;28;20743;-61
2023/12/13 11:34:58;;;;;;;9.20;4.05;;;;;;;;;;5030382;28;20406;-61
2023/12/13 11:37:23;;;;;;;8.23;3.63;;;;;;;;;;5028932;28;20478;-61
2023/12/13 11:39:49;;;;;;;8.90;3.53;;;;;;;;;;5029289;28;20411;-61
2023/12/13 11:42:15;;;;;;;11.20;4.28;;;;;;;;;;5029883;28;20894;-61
2023/12/13 11:44:40;;;;;;;8.60;3.90;;;;;;;;;;5029743;28;20398;-62
2023/12/13 11:47:07;;;;;;;8.03;3.80;;;;;;;;;;5029071;28;20407;-62
2023/12/13 11:49:32;;;;;;;7.88;3.45;;;;;;;;;;5025154;28;20478;-61
2023/12/13 11:51:57;;;;;;;7.37;3.90;;;;;;;;;;5030091;28;20506;-61
2023/12/13 11:54:23;;;;;;;9.47;3.83;;;;;;;;;;5029177;28;20398;-61
2023/12/13 11:56:48;;;;;;;7.43;3.75;;;;;;;;;;5029651;28;20403;-61
2023/12/13 11:59:13;;;;;;;6.40;2.70;;;;;;;;;;5028746;28;20761;-62
2023/12/13 12:01:39;;;;;;;6.73;2.73;;;;;;;;;;5029278;28;20730;-61
2023/12/13 12:04:04;;;;;;;5.43;2.67;;;;;;;;;;5029845;28;20762;-62
2023/12/13 12:06:30;;;;;;;7.18;2.95;;;;;;;;;;5028926;28;20494;-62
2023/12/13 12:08:55;;;;;;;22.80;15.93;;;;;;;;;;5028484;28;20398;-62
2023/12/13 12:11:21;;;;;;;7.33;3.97;;;;;;;;;;5029511;28;20446;-62
2023/12/13 12:13:48;;;;;;;5.43;2.30;;;;;;;;;;5044912;28;20493;-62
2023/12/13 12:16:14;;;;;;;5.45;2.17;;;;;;;;;;5028443;28;20490;-62
2023/12/13 12:18:40;;;;;;;4.82;1.90;;;;;;;;;;5026752;28;20521;-62
2023/12/13 12:21:06;;;;;;;3.83;1.80;;;;;;;;;;5029295;28;20410;-62
2023/12/13 12:23:34;;;;;;;5.65;2.08;;;;;;;;;;5028782;28;20403;-62
2023/12/13 12:25:59;;;;;;;5.05;1.60;;;;;;;;;;5029491;28;20478;-62
2023/12/13 12:28:27;;;;;;;4.80;2.00;;;;;;;;;;5028117;28;20815;-62
2023/12/13 12:30:52;;;;;;;4.45;1.67;;;;;;;;;;5028978;28;21094;-62
2023/12/13 12:33:18;;;;;;;3.63;1.57;;;;;;;;;;5029542;28;20530;-62
2023/12/13 12:35:44;;;;;;;4.43;1.48;;;;;;;;;;5028270;28;20401;-62
2023/12/13 12:38:10;;;;;;;5.88;2.40;;;;;;;;;;5027724;28;20890;-62
2023/12/13 12:40:35;;;;;;;4.93;2.10;;;;;;;;;;5029900;28;20402;-62
2023/12/13 12:43:00;;;;;;;4.43;2.30;;;;;;;;;;5028127;28;20422;-63
2023/12/13 12:45:26;;;;;;;4.97;2.00;;;;;;;;;;5028140;28;20488;-62
2023/12/13 12:47:51;;;;;;;5.90;2.53;;;;;;;;;;5025956;28;20407;-62
2023/12/13 12:50:17;;;;;;;5.47;2.63;;;;;;;;;;5028090;28;20399;-62
2023/12/13 12:52:42;;;;;;;6.07;2.88;;;;;;;;;;5029123;28;20402;-62
2023/12/13 12:55:08;;;;;;;6.77;3.10;;;;;;;;;;5008065;28;20402;-62
2023/12/13 12:57:33;;;;;;;6.97;3.47;;;;;;;;;;5027638;28;20392;-62
2023/12/13 12:59:58;;;;;;;5.87;2.70;;;;;;;;;;5028410;28;20407;-62
2023/12/13 13:02:24;;;;;;;5.70;3.10;;;;;;;;;;5028989;28;20718;-62
2023/12/13 13:04:49;;;;;;;5.20;2.70;;;;;;;;;;5028679;28;20417;-62
2023/12/13 13:07:14;;;;;;;4.53;2.40;;;;;;;;;;5029074;28;20403;-62
2023/12/13 13:09:40;;;;;;;6.53;2.80;;;;;;;;;;5016336;28;20442;-62
2023/12/13 13:12:05;;;;;;;8.00;3.27;;;;;;;;;;5028138;28;20403;-62
2023/12/13 13:14:30;;;;;;;8.23;3.00;;;;;;;;;;5022587;28;20414;-62
2023/12/13 13:16:56;;;;;;;7.10;2.67;;;;;;;;;;5021370;28;20445;-62
2023/12/13 13:19:21;;;;;;;5.90;2.60;;;;;;;;;;5033190;28;20827;-62
2023/12/13 13:21:46;;;;;;;5.25;2.22;;;;;;;;;;5029254;28;20399;-62
2023/12/13 13:24:12;;;;;;;5.07;2.30;;;;;;;;;;5028765;28;20403;-62
2023/12/13 13:26:37;;;;;;;5.90;2.47;;;;;;;;;;5028579;28;20399;-62
2023/12/13 13:29:03;;;;;;;5.77;2.83;;;;;;;;;;5027721;28;20832;-62
2023/12/13 13:31:28;;;;;;;6.88;3.13;;;;;;;;;;5029383;28;20452;-62
2023/12/13 13:33:53;;;;;;;5.97;2.70;;;;;;;;;;5028549;28;20396;-62
2023/12/13 13:36:20;;;;;;;6.17;3.13;;;;;;;;;;5028731;28;20491;-62
2023/12/13 13:38:45;;;;;;;7.65;3.58;;;;;;;;;;5028686;28;20469;-62
2023/12/13 13:41:11;;;;;;;6.57;3.30;;;;;;;;;;5031572;28;20494;-62
2023/12/13 13:43:36;;;;;;;7.50;3.17;;;;;;;;;;5030802;28;20395;-62
2023/12/13 13:46:01;;;;;;;6.30;3.03;;;;;;;;;;5032491;28;20403;-63
2023/12/13 13:48:27;;;;;;;4.93;3.00;;;;;;;;;;5041853;28;20423;-62
2023/12/13 13:50:52;;;;;;;4.70;2.70;;;;;;;;;;5031548;28;20407;-62
2023/12/13 13:53:17;;;;;;;8.47;2.60;;;;;;;;;;5031336;28;20407;-62
2023/12/13 13:55:44;;;;;;;4.97;2.77;;;;;;;;;;5032424;28;20411;-62
2023/12/13 13:58:10;;;;;;;6.93;4.57;;;;;;;;;;5030546;28;20739;-62
2023/12/13 14:00:35;;;;;;;6.07;3.00;;;;;;;;;;5031768;28;20398;-62
2023/12/13 14:03:00;;;;;;;7.73;2.93;;;;;;;;;;5034524;28;20790;-64
2023/12/13 14:05:26;;;;;;;5.83;2.40;;;;;;;;;;5052271;28;20867;-62
2023/12/13 14:07:51;;;;;;;5.10;2.80;;;;;;;;;;5042163;28;20920;-62
2023/12/13 14:10:16;;;;;;;7.97;2.72;;;;;;;;;;5031518;28;20893;-62
2023/12/13 14:12:42;;;;;;;6.33;3.20;;;;;;;;;;5031953;28;20890;-62
2023/12/13 14:15:08;;;;;;;6.67;3.87;;;;;;;;;;5028604;28;20417;-62
2023/12/13 14:17:33;;;;;;;7.20;4.32;;;;;;;;;;5031394;28;20414;-62
2023/12/13 14:19:59;;;;;;;7.03;4.10;;;;;;;;;;5031925;28;20415;-62
2023/12/13 14:22:24;;;;;;;7.27;3.90;;;;;;;;;;5030583;28;20406;-62
2023/12/13 14:24:51;;;;;;;5.97;2.90;;;;;;;;;;5031833;28;20418;-62
2023/12/13 14:27:18;;;;;;;4.87;2.50;;;;;;;;;;5031189;28;20421;-62